Time;durP1;ratioP1;P1;durP2;ratioP2;P2;SDS_P1;SDS_P2;PMS_P1;PMS_P2;Temp;Humidity;BMP_temperature;BMP_pressure;BME280_temperature;BME280_humidity;BME280_pressure;Samples;Min_cycle;Max_cycle;Signal;HPM_P1;HPM_P2
2021/08/18 00:01:37;;;;;;;3.58;1.50;;;;;;;;;;5033795;28;20037;-75
2021/08/18 00:04:04;;;;;;;2.33;1.67;;;;;;;;;;5033355;28;20485;-76
2021/08/18 00:06:30;;;;;;;2.38;1.50;;;;;;;;;;5033273;28;20026;-75
2021/08/18 00:08:56;;;;;;;2.35;1.80;;;;;;;;;;5033081;28;20133;-75
2021/08/18 00:11:22;;;;;;;2.65;1.40;;;;;;;;;;5032724;28;20045;-76
2021/08/18 00:13:48;;;;;;;2.28;1.38;;;;;;;;;;5033081;28;20029;-75
2021/08/18 00:16:15;;;;;;;3.05;1.90;;;;;;;;;;5033587;28;20068;-77
2021/08/18 00:18:41;;;;;;;2.53;1.60;;;;;;;;;;5033431;28;20025;-77
2021/08/18 00:21:07;;;;;;;3.63;1.92;;;;;;;;;;5033044;28;20432;-76
2021/08/18 00:23:33;;;;;;;3.78;1.60;;;;;;;;;;5033438;28;20049;-76
2021/08/18 00:25:59;;;;;;;2.47;1.70;;;;;;;;;;5033161;28;20026;-76
2021/08/18 00:28:25;;;;;;;4.15;2.20;;;;;;;;;;5033083;28;20040;-77
2021/08/18 00:30:51;;;;;;;4.88;2.28;;;;;;;;;;5015313;28;20401;-76
2021/08/18 00:33:17;;;;;;;3.08;1.80;;;;;;;;;;5032913;28;20053;-76
2021/08/18 00:35:43;;;;;;;4.18;1.90;;;;;;;;;;5032840;28;20478;-76
2021/08/18 00:38:09;;;;;;;4.32;2.20;;;;;;;;;;5032876;28;20051;-76
2021/08/18 00:40:36;;;;;;;3.20;2.03;;;;;;;;;;5032859;28;20433;-75
2021/08/18 00:43:02;;;;;;;3.30;2.00;;;;;;;;;;5033168;28;20363;-77
2021/08/18 00:45:28;;;;;;;5.13;2.50;;;;;;;;;;5015179;28;20398;-76
2021/08/18 00:47:54;;;;;;;3.78;2.15;;;;;;;;;;5032870;28;20026;-76
2021/08/18 00:50:22;;;;;;;4.35;2.17;;;;;;;;;;5032930;28;20432;-74
2021/08/18 00:52:48;;;;;;;5.15;2.38;;;;;;;;;;5032868;28;20504;-76
2021/08/18 00:55:16;;;;;;;5.68;2.50;;;;;;;;;;5032900;28;20036;-75
2021/08/18 00:57:42;;;;;;;4.10;2.15;;;;;;;;;;5033117;28;20037;-77
2021/08/18 01:00:10;;;;;;;4.20;2.00;;;;;;;;;;5015151;28;20440;-76
2021/08/18 01:02:36;;;;;;;4.18;2.28;;;;;;;;;;5032940;28;20488;-77
2021/08/18 01:05:08;;;;;;;4.72;2.10;;;;;;;;;;5032773;28;20026;-76
2021/08/18 01:07:34;;;;;;;5.05;2.10;;;;;;;;;;5033039;28;20080;-76
2021/08/18 01:10:00;;;;;;;3.00;1.85;;;;;;;;;;5032702;28;20132;-76
2021/08/18 01:12:26;;;;;;;5.60;2.47;;;;;;;;;;5014985;28;20064;-75
2021/08/18 01:14:54;;;;;;;3.10;2.00;;;;;;;;;;5015413;28;20107;-76
2021/08/18 01:17:20;;;;;;;2.90;1.98;;;;;;;;;;5036030;28;20026;-75
2021/08/18 01:19:46;;;;;;;5.55;2.15;;;;;;;;;;5036161;28;20112;-75
2021/08/18 01:22:12;;;;;;;4.78;2.38;;;;;;;;;;5036065;28;20109;-76
2021/08/18 01:24:38;;;;;;;3.58;2.20;;;;;;;;;;5036094;28;20553;-76
2021/08/18 01:27:04;;;;;;;2.88;1.75;;;;;;;;;;5036020;28;20097;-76
2021/08/18 01:29:30;;;;;;;5.18;2.45;;;;;;;;;;5036251;28;20104;-76
2021/08/18 01:31:57;;;;;;;4.95;2.30;;;;;;;;;;5035944;28;20022;-76
2021/08/18 01:34:23;;;;;;;4.00;2.20;;;;;;;;;;5035997;28;20075;-76
2021/08/18 01:36:49;;;;;;;4.53;2.33;;;;;;;;;;5035951;28;20101;-75
2021/08/18 01:39:15;;;;;;;4.63;2.33;;;;;;;;;;5035897;28;20057;-75
2021/08/18 01:41:41;;;;;;;4.15;2.30;;;;;;;;;;5035809;28;20025;-74
2021/08/18 01:44:07;;;;;;;4.30;2.38;;;;;;;;;;5036110;28;20017;-76
2021/08/18 01:46:33;;;;;;;3.85;2.13;;;;;;;;;;5035803;28;20056;-76
2021/08/18 01:48:59;;;;;;;3.75;2.50;;;;;;;;;;5035730;28;20111;-77
2021/08/18 01:51:26;;;;;;;4.45;2.40;;;;;;;;;;5036014;28;20029;-75
2021/08/18 01:53:52;;;;;;;4.63;2.53;;;;;;;;;;5035636;28;20041;-77
2021/08/18 01:56:18;;;;;;;6.13;2.50;;;;;;;;;;5017852;28;20116;-75
2021/08/18 01:58:44;;;;;;;3.63;1.92;;;;;;;;;;5035527;28;20064;-76
2021/08/18 02:01:12;;;;;;;4.65;2.13;;;;;;;;;;5035701;28;20025;-75
2021/08/18 02:03:38;;;;;;;3.80;2.38;;;;;;;;;;5035724;28;20045;-76
2021/08/18 02:06:04;;;;;;;5.43;2.50;;;;;;;;;;5035408;28;20104;-76
2021/08/18 02:08:30;;;;;;;4.28;2.20;;;;;;;;;;5035568;28;20072;-76
2021/08/18 02:10:56;;;;;;;4.05;2.35;;;;;;;;;;5035137;28;20129;-76
2021/08/18 02:13:22;;;;;;;4.45;2.40;;;;;;;;;;5035265;28;20053;-76
2021/08/18 02:15:48;;;;;;;4.15;2.65;;;;;;;;;;5035474;28;20029;-77
2021/08/18 02:18:15;;;;;;;6.93;3.72;;;;;;;;;;5035426;28;20029;-75
2021/08/18 02:20:42;;;;;;;7.35;2.33;;;;;;;;;;5035386;28;20034;-76
2021/08/18 02:23:08;;;;;;;3.88;2.13;;;;;;;;;;5035238;28;20541;-76
2021/08/18 02:25:34;;;;;;;5.00;2.60;;;;;;;;;;5035036;28;20379;-77
2021/08/18 02:28:01;;;;;;;8.77;2.33;;;;;;;;;;5034260;28;20024;-76
2021/08/18 02:30:29;;;;;;;4.22;2.30;;;;;;;;;;5034982;28;20029;-75
2021/08/18 02:32:55;;;;;;;4.15;2.35;;;;;;;;;;5017097;28;20029;-75
2021/08/18 02:35:21;;;;;;;6.68;2.83;;;;;;;;;;5034852;28;20033;-76
2021/08/18 02:37:48;;;;;;;4.40;2.58;;;;;;;;;;5035039;28;20036;-75
2021/08/18 02:40:18;;;;;;;4.82;2.17;;;;;;;;;;5034753;28;20061;-77
2021/08/18 02:42:44;;;;;;;5.97;2.33;;;;;;;;;;5034925;28;20116;-76
2021/08/18 02:45:10;;;;;;;3.05;1.95;;;;;;;;;;5034692;28;20087;-76
2021/08/18 02:47:36;;;;;;;6.55;2.20;;;;;;;;;;5034925;28;20021;-76
2021/08/18 02:50:04;;;;;;;3.90;1.90;;;;;;;;;;5034546;28;20537;-77
2021/08/18 02:52:30;;;;;;;4.68;2.30;;;;;;;;;;5035070;28;20025;-76
2021/08/18 02:54:57;;;;;;;3.75;2.40;;;;;;;;;;5034510;28;20080;-76
2021/08/18 02:57:23;;;;;;;4.93;2.40;;;;;;;;;;5034734;28;20022;-76
2021/08/18 02:59:51;;;;;;;3.88;2.47;;;;;;;;;;5034394;28;20397;-77
2021/08/18 03:02:17;;;;;;;6.10;2.70;;;;;;;;;;5034576;28;20539;-76
2021/08/18 03:04:43;;;;;;;6.13;1.90;;;;;;;;;;5016568;28;20527;-76
2021/08/18 03:07:09;;;;;;;5.20;2.47;;;;;;;;;;5034181;28;20104;-75
2021/08/18 03:09:35;;;;;;;3.38;2.17;;;;;;;;;;5016306;28;20026;-76
2021/08/18 03:12:01;;;;;;;6.93;2.97;;;;;;;;;;5034384;28;20152;-76
2021/08/18 03:14:27;;;;;;;4.03;2.22;;;;;;;;;;5033963;28;20036;-76
2021/08/18 03:16:53;;;;;;;5.43;2.60;;;;;;;;;;5034215;28;20034;-77
2021/08/18 03:19:19;;;;;;;6.07;2.75;;;;;;;;;;5034184;28;20026;-76
2021/08/18 03:21:45;;;;;;;5.00;2.45;;;;;;;;;;5034652;28;20026;-76
2021/08/18 03:24:11;;;;;;;3.70;2.58;;;;;;;;;;5033828;28;20032;-75
2021/08/18 03:26:38;;;;;;;3.78;2.30;;;;;;;;;;5016257;28;20028;-76
2021/08/18 03:29:04;;;;;;;4.57;2.63;;;;;;;;;;5033862;28;20026;-76
2021/08/18 03:31:30;;;;;;;5.20;2.67;;;;;;;;;;5033702;28;20025;-76
2021/08/18 03:33:56;;;;;;;5.40;2.47;;;;;;;;;;5033794;28;20469;-76
2021/08/18 03:36:22;;;;;;;6.65;2.90;;;;;;;;;;5034082;28;20025;-77
2021/08/18 03:38:48;;;;;;;5.70;2.67;;;;;;;;;;5033321;28;20489;-77
2021/08/18 03:41:14;;;;;;;4.85;2.75;;;;;;;;;;5033478;28;20101;-76
2021/08/18 03:43:40;;;;;;;5.15;2.38;;;;;;;;;;5015778;28;20033;-75
2021/08/18 03:46:06;;;;;;;6.85;2.55;;;;;;;;;;5033462;28;20024;-76
2021/08/18 03:48:32;;;;;;;3.75;2.17;;;;;;;;;;5033449;28;20478;-76
2021/08/18 03:50:58;;;;;;;5.38;2.70;;;;;;;;;;5033417;28;20094;-74
2021/08/18 03:53:24;;;;;;;8.00;3.17;;;;;;;;;;5015648;28;20041;-76
2021/08/18 03:55:50;;;;;;;5.75;2.75;;;;;;;;;;5033347;28;20029;-76
2021/08/18 03:58:17;;;;;;;5.50;2.47;;;;;;;;;;5016529;28;20117;-76
2021/08/18 04:00:43;;;;;;;4.47;2.97;;;;;;;;;;5033637;28;20028;-75
2021/08/18 04:03:09;;;;;;;5.55;2.78;;;;;;;;;;5033328;28;20433;-75
2021/08/18 04:05:35;;;;;;;6.07;3.15;;;;;;;;;;5033404;28;20473;-76
2021/08/18 04:08:02;;;;;;;5.35;2.55;;;;;;;;;;5033241;28;20056;-75
2021/08/18 04:10:28;;;;;;;5.78;2.75;;;;;;;;;;5033100;28;20045;-75
2021/08/18 04:12:58;;;;;;;5.25;2.90;;;;;;;;;;5033270;28;20475;-75
2021/08/18 04:15:24;;;;;;;6.35;2.65;;;;;;;;;;5033776;28;20076;-77
2021/08/18 04:17:50;;;;;;;7.70;2.95;;;;;;;;;;5033196;28;20116;-76
2021/08/18 04:20:16;;;;;;;5.13;2.88;;;;;;;;;;5033193;28;20057;-76
2021/08/18 04:22:43;;;;;;;5.93;2.90;;;;;;;;;;5033370;28;20462;-76
2021/08/18 04:25:12;;;;;;;7.47;2.92;;;;;;;;;;5033464;28;20026;-76
2021/08/18 04:27:38;;;;;;;5.93;2.53;;;;;;;;;;5032987;28;20541;-77
2021/08/18 04:30:06;;;;;;;6.97;2.80;;;;;;;;;;5033119;28;20076;-75
2021/08/18 04:32:32;;;;;;;5.53;2.78;;;;;;;;;;5033056;28;20036;-77
2021/08/18 04:34:58;;;;;;;4.55;2.50;;;;;;;;;;5033567;28;20026;-76
2021/08/18 04:37:24;;;;;;;6.75;3.47;;;;;;;;;;5033059;28;20588;-76
2021/08/18 04:39:50;;;;;;;5.38;2.88;;;;;;;;;;5033293;28;20533;-77
2021/08/18 04:42:16;;;;;;;6.45;2.60;;;;;;;;;;5032933;28;20038;-77
2021/08/18 04:44:42;;;;;;;5.90;2.65;;;;;;;;;;5032987;28;20385;-76
2021/08/18 04:47:08;;;;;;;5.68;2.97;;;;;;;;;;5032988;28;20033;-76
2021/08/18 04:49:34;;;;;;;6.72;3.00;;;;;;;;;;5032914;28;20025;-75
2021/08/18 04:52:00;;;;;;;4.32;2.65;;;;;;;;;;5035682;28;20112;-76
2021/08/18 04:54:26;;;;;;;4.93;2.78;;;;;;;;;;5036788;28;20392;-76
2021/08/18 04:56:52;;;;;;;6.15;3.03;;;;;;;;;;5036707;28;20434;-76
2021/08/18 04:59:18;;;;;;;7.47;2.97;;;;;;;;;;5036673;28;20080;-76
2021/08/18 05:01:44;;;;;;;7.97;2.60;;;;;;;;;;5036811;28;20034;-76
2021/08/18 05:04:10;;;;;;;6.55;3.05;;;;;;;;;;5036605;28;20524;-77
2021/08/18 05:06:36;;;;;;;6.05;2.90;;;;;;;;;;5036569;28;20025;-76
2021/08/18 05:09:02;;;;;;;7.75;4.15;;;;;;;;;;5036427;28;20052;-75
2021/08/18 05:11:28;;;;;;;6.38;2.83;;;;;;;;;;5036073;28;20068;-74
2021/08/18 05:13:54;;;;;;;6.10;2.78;;;;;;;;;;5036708;28;20380;-77
2021/08/18 05:16:21;;;;;;;6.55;3.10;;;;;;;;;;5036654;28;20382;-76
2021/08/18 05:18:47;;;;;;;6.40;3.30;;;;;;;;;;5036614;28;20044;-76
2021/08/18 05:21:13;;;;;;;5.88;2.50;;;;;;;;;;5036241;28;20469;-77
2021/08/18 05:23:38;;;;;;;6.90;3.22;;;;;;;;;;5036145;28;20022;-76
2021/08/18 05:26:04;;;;;;;6.50;2.90;;;;;;;;;;5036435;28;20025;-76
2021/08/18 05:28:31;;;;;;;6.72;3.47;;;;;;;;;;5036139;28;20021;-75
2021/08/18 05:30:57;;;;;;;6.70;3.20;;;;;;;;;;5018248;28;20021;-77
2021/08/18 05:33:23;;;;;;;9.85;3.70;;;;;;;;;;5018301;28;20025;-76
2021/08/18 05:35:49;;;;;;;8.07;3.30;;;;;;;;;;5035993;28;20037;-75
2021/08/18 05:38:15;;;;;;;7.85;3.10;;;;;;;;;;5035973;28;20029;-75
2021/08/18 05:40:41;;;;;;;8.95;3.40;;;;;;;;;;5018450;28;20083;-76
2021/08/18 05:43:07;;;;;;;7.47;2.85;;;;;;;;;;5036087;28;20462;-75
2021/08/18 05:45:33;;;;;;;9.85;3.70;;;;;;;;;;5035832;28;20025;-77
2021/08/18 05:47:59;;;;;;;5.75;2.90;;;;;;;;;;5035791;28;20021;-75
2021/08/18 05:50:25;;;;;;;7.00;3.90;;;;;;;;;;5035715;28;20029;-76
2021/08/18 05:52:51;;;;;;;7.32;3.35;;;;;;;;;;5035963;28;20100;-75
2021/08/18 05:55:17;;;;;;;7.18;3.90;;;;;;;;;;5036188;28;20032;-77
2021/08/18 05:57:43;;;;;;;5.65;2.90;;;;;;;;;;5035644;28;20398;-75
2021/08/18 06:00:09;;;;;;;8.25;3.00;;;;;;;;;;5035559;28;20029;-76
2021/08/18 06:02:36;;;;;;;9.52;3.58;;;;;;;;;;5035266;28;20025;-76
2021/08/18 06:05:02;;;;;;;8.75;3.85;;;;;;;;;;5035499;28;20463;-76
2021/08/18 06:07:28;;;;;;;5.78;2.88;;;;;;;;;;5035299;28;20025;-76
2021/08/18 06:09:54;;;;;;;6.47;2.95;;;;;;;;;;5035210;28;20058;-76
2021/08/18 06:12:20;;;;;;;9.25;3.60;;;;;;;;;;5035391;28;20030;-75
2021/08/18 06:14:46;;;;;;;6.03;2.95;;;;;;;;;;5035530;28;20029;-76
2021/08/18 06:17:12;;;;;;;6.95;3.25;;;;;;;;;;5017470;28;20052;-76
2021/08/18 06:19:38;;;;;;;6.53;3.53;;;;;;;;;;5035175;28;20052;-77
2021/08/18 06:22:04;;;;;;;8.98;2.90;;;;;;;;;;5035038;28;20375;-76
2021/08/18 06:24:40;;;;;;;10.30;3.13;;;;;;;;;;5035249;28;20544;-76
2021/08/18 06:27:07;;;;;;;8.07;3.20;;;;;;;;;;5035118;28;20508;-77
2021/08/18 06:29:34;;;;;;;7.07;3.10;;;;;;;;;;5035077;28;20029;-76
2021/08/18 06:32:01;;;;;;;5.88;2.80;;;;;;;;;;5017251;28;20185;-76
2021/08/18 06:34:27;;;;;;;6.18;3.28;;;;;;;;;;5034932;28;20036;-76
2021/08/18 06:36:53;;;;;;;6.95;3.03;;;;;;;;;;5017138;28;20032;-76
2021/08/18 06:39:19;;;;;;;5.20;3.05;;;;;;;;;;5034818;28;20030;-77
2021/08/18 06:41:45;;;;;;;7.55;3.33;;;;;;;;;;5034989;28;20473;-75
2021/08/18 06:44:12;;;;;;;5.63;3.00;;;;;;;;;;5035250;28;20025;-76
2021/08/18 06:46:38;;;;;;;8.15;3.08;;;;;;;;;;5034709;28;20025;-76
2021/08/18 06:49:04;;;;;;;7.65;3.22;;;;;;;;;;5034926;28;20105;-75
2021/08/18 06:51:30;;;;;;;8.82;3.60;;;;;;;;;;5034896;28;20445;-77
2021/08/18 06:53:56;;;;;;;11.35;3.38;;;;;;;;;;5034801;28;20022;-76
2021/08/18 06:56:22;;;;;;;8.05;3.58;;;;;;;;;;5034772;28;20027;-77
2021/08/18 06:58:48;;;;;;;9.38;3.33;;;;;;;;;;5034465;28;20473;-77
2021/08/18 07:01:14;;;;;;;8.57;3.30;;;;;;;;;;5034655;28;20024;-75
2021/08/18 07:03:40;;;;;;;7.45;3.63;;;;;;;;;;5034269;28;20033;-75
2021/08/18 07:06:06;;;;;;;5.30;3.03;;;;;;;;;;5034293;28;20017;-77
2021/08/18 07:08:32;;;;;;;10.18;3.40;;;;;;;;;;5016477;28;20058;-76
2021/08/18 07:10:58;;;;;;;5.43;3.17;;;;;;;;;;5034120;28;20402;-76
2021/08/18 07:13:24;;;;;;;8.88;3.70;;;;;;;;;;5033688;28;20029;-75
2021/08/18 07:15:50;;;;;;;6.78;3.42;;;;;;;;;;5034103;28;20029;-76
2021/08/18 07:18:16;;;;;;;7.45;3.58;;;;;;;;;;5016414;28;20052;-76
2021/08/18 07:20:42;;;;;;;9.07;3.60;;;;;;;;;;5034039;28;20113;-76
2021/08/18 07:23:08;;;;;;;7.88;3.22;;;;;;;;;;5033936;28;20075;-76
2021/08/18 07:25:34;;;;;;;12.48;3.53;;;;;;;;;;5033974;28;20017;-76
2021/08/18 07:28:00;;;;;;;6.93;3.15;;;;;;;;;;5033892;28;20036;-75
2021/08/18 07:30:26;;;;;;;6.53;3.30;;;;;;;;;;5034084;28;20018;-76
2021/08/18 07:32:52;;;;;;;6.32;3.13;;;;;;;;;;5033905;28;20381;-75
2021/08/18 07:35:18;;;;;;;6.97;3.03;;;;;;;;;;5033765;28;20091;-76
2021/08/18 07:37:44;;;;;;;11.88;3.30;;;;;;;;;;5034014;28;20029;-76
2021/08/18 07:40:10;;;;;;;7.47;3.00;;;;;;;;;;5034277;28;20072;-76
2021/08/18 07:42:36;;;;;;;7.80;3.17;;;;;;;;;;5034134;28;20038;-75
2021/08/18 07:45:03;;;;;;;6.90;3.42;;;;;;;;;;5034171;28;20095;-77
2021/08/18 07:47:29;;;;;;;7.30;3.20;;;;;;;;;;5033547;28;20029;-75
2021/08/18 07:49:55;;;;;;;7.40;3.00;;;;;;;;;;5033558;28;20028;-76
2021/08/18 07:52:21;;;;;;;4.80;2.75;;;;;;;;;;5033779;28;20029;-76
2021/08/18 07:54:47;;;;;;;6.95;3.20;;;;;;;;;;5033484;28;20367;-77
2021/08/18 07:57:13;;;;;;;9.65;3.42;;;;;;;;;;5033712;28;20025;-76
2021/08/18 07:59:39;;;;;;;5.15;3.15;;;;;;;;;;5033715;28;20083;-76
2021/08/18 08:02:05;;;;;;;6.25;3.25;;;;;;;;;;5033166;28;20090;-76
2021/08/18 08:04:31;;;;;;;7.72;3.55;;;;;;;;;;5033250;28;20085;-77
2021/08/18 08:06:57;;;;;;;6.78;3.17;;;;;;;;;;5033504;28;20063;-75
2021/08/18 08:09:23;;;;;;;7.85;3.63;;;;;;;;;;5032896;28;20025;-75
2021/08/18 08:11:49;;;;;;;5.43;2.72;;;;;;;;;;5033734;28;20060;-75
2021/08/18 08:14:15;;;;;;;6.28;2.53;;;;;;;;;;5033109;28;20112;-76
2021/08/18 08:16:41;;;;;;;6.63;2.78;;;;;;;;;;5033122;28;20034;-76
2021/08/18 08:19:08;;;;;;;7.55;3.00;;;;;;;;;;5033759;28;20538;-76
2021/08/18 08:21:34;;;;;;;6.78;2.85;;;;;;;;;;5033092;28;20112;-75
2021/08/18 08:24:00;;;;;;;8.15;3.72;;;;;;;;;;5033731;28;20049;-76
2021/08/18 08:26:26;;;;;;;6.75;3.10;;;;;;;;;;5034879;28;20488;-75
2021/08/18 08:28:52;;;;;;;7.05;3.00;;;;;;;;;;5037273;28;20052;-75
2021/08/18 08:31:18;;;;;;;5.63;3.08;;;;;;;;;;5019471;28;20394;-76
2021/08/18 08:33:44;;;;;;;5.25;2.90;;;;;;;;;;5019456;28;20111;-76
2021/08/18 08:36:10;;;;;;;5.72;3.65;;;;;;;;;;5037167;28;20030;-76
2021/08/18 08:38:36;;;;;;;9.13;4.13;;;;;;;;;;5037105;28;20432;-76
2021/08/18 08:41:02;;;;;;;7.82;3.28;;;;;;;;;;5037030;28;20041;-76
2021/08/18 08:43:28;;;;;;;7.95;3.60;;;;;;;;;;5019203;28;20022;-76
2021/08/18 08:45:54;;;;;;;6.63;2.70;;;;;;;;;;5037104;28;20084;-76
2021/08/18 08:48:21;;;;;;;9.50;3.20;;;;;;;;;;5037467;28;20405;-75
2021/08/18 08:50:47;;;;;;;9.35;5.13;;;;;;;;;;5037188;28;20481;-76
2021/08/18 08:53:14;;;;;;;7.75;5.20;;;;;;;;;;5036840;28;20025;-75
2021/08/18 08:55:43;;;;;;;6.53;4.15;;;;;;;;;;5037042;28;20029;-75
2021/08/18 08:58:09;;;;;;;7.53;3.42;;;;;;;;;;5036772;28;20489;-75
2021/08/18 09:00:35;;;;;;;8.68;3.60;;;;;;;;;;5018952;28;20029;-76
2021/08/18 09:03:15;;;;;;;5.15;2.90;;;;;;;;;;5036555;28;20367;-75
2021/08/18 09:05:41;;;;;;;6.50;2.88;;;;;;;;;;5018836;28;20490;-75
2021/08/18 09:08:34;;;;;;;10.30;3.50;;;;;;;;;;5036486;28;20527;-75
2021/08/18 09:11:08;;;;;;;8.43;4.53;;;;;;;;;;5032748;28;20116;-75
2021/08/18 09:13:51;;;;;;;6.85;3.67;;;;;;;;;;5037030;28;20118;-77
2021/08/18 09:16:19;;;;;;;9.40;3.15;;;;;;;;;;5036949;28;20029;-76
2021/08/18 09:18:50;;;;;;;9.82;3.50;;;;;;;;;;5036366;28;20037;-76
2021/08/18 09:21:26;;;;;;;5.85;3.33;;;;;;;;;;5036435;28;20033;-76
2021/08/18 09:23:52;;;;;;;7.53;3.40;;;;;;;;;;5036321;28;20064;-76
2021/08/18 09:26:21;;;;;;;6.90;3.20;;;;;;;;;;5036250;28;20026;-76
2021/08/18 09:28:49;;;;;;;5.53;3.30;;;;;;;;;;5036720;28;20459;-76
2021/08/18 09:31:25;;;;;;;8.95;3.45;;;;;;;;;;5036120;28;20152;-75
2021/08/18 09:33:55;;;;;;;6.70;3.53;;;;;;;;;;5036347;28;20033;-76
2021/08/18 09:36:25;;;;;;;5.63;2.90;;;;;;;;;;5017939;28;20075;-76
2021/08/18 09:39:11;;;;;;;6.70;2.70;;;;;;;;;;5036261;28;20032;-76
2021/08/18 09:41:37;;;;;;;8.77;3.20;;;;;;;;;;5035685;28;20052;-75
2021/08/18 09:44:07;;;;;;;5.05;3.17;;;;;;;;;;5036152;28;20065;-76
2021/08/18 09:46:36;;;;;;;7.45;3.28;;;;;;;;;;5036125;28;20025;-76
2021/08/18 09:49:12;;;;;;;8.15;3.53;;;;;;;;;;5035812;28;20103;-74
2021/08/18 09:51:38;;;;;;;6.00;3.72;;;;;;;;;;5017907;28;20049;-75
2021/08/18 09:54:14;;;;;;;6.40;3.20;;;;;;;;;;5035559;28;20111;-75
2021/08/18 09:56:45;;;;;;;6.22;3.15;;;;;;;;;;5017886;28;20025;-76
2021/08/18 09:59:11;;;;;;;6.05;3.25;;;;;;;;;;5035598;28;20103;-75
2021/08/18 10:01:37;;;;;;;8.30;4.80;;;;;;;;;;5035963;28;20021;-75
2021/08/18 10:04:03;;;;;;;95.93;64.72;;;;;;;;;;5035752;28;20025;-77
2021/08/18 10:06:30;;;;;;;67.53;48.05;;;;;;;;;;5036022;28;20109;-76
2021/08/18 10:08:56;;;;;;;32.50;21.95;;;;;;;;;;5035533;28;20037;-75
2021/08/18 10:11:24;;;;;;;41.15;26.83;;;;;;;;;;5035197;28;20038;-75
2021/08/18 10:13:50;;;;;;;22.38;14.60;;;;;;;;;;5035256;28;20037;-75
2021/08/18 10:16:17;;;;;;;10.68;4.97;;;;;;;;;;5035277;28;20026;-76
2021/08/18 10:18:43;;;;;;;26.02;15.35;;;;;;;;;;5035272;28;20029;-76
2021/08/18 10:21:26;;;;;;;7.40;4.00;;;;;;;;;;5035120;28;20032;-76
2021/08/18 10:24:00;;;;;;;6.40;3.63;;;;;;;;;;5035717;28;20025;-76
2021/08/18 10:26:35;;;;;;;8.88;3.65;;;;;;;;;;5035120;28;20023;-76
2021/08/18 10:29:04;;;;;;;8.50;4.10;;;;;;;;;;5035346;28;20018;-76
2021/08/18 10:31:46;;;;;;;7.05;3.47;;;;;;;;;;5035276;28;20116;-75
2021/08/18 10:34:24;;;;;;;10.45;4.88;;;;;;;;;;5034942;28;20022;-76
2021/08/18 10:36:51;;;;;;;9.18;4.22;;;;;;;;;;5034940;28;20493;-76
2021/08/18 10:39:26;;;;;;;6.53;3.88;;;;;;;;;;5035155;28;20021;-75
2021/08/18 10:41:59;;;;;;;10.30;4.47;;;;;;;;;;5034727;28;20034;-75
2021/08/18 10:44:44;;;;;;;9.70;3.80;;;;;;;;;;5034747;28;20470;-76
2021/08/18 10:47:13;;;;;;;10.85;5.93;;;;;;;;;;5016955;28;20036;-76
2021/08/18 10:49:39;;;;;;;16.15;11.55;;;;;;;;;;5033751;28;20021;-76
2021/08/18 10:52:05;;;;;;;11.50;4.43;;;;;;;;;;5034774;28;20040;-77
2021/08/18 10:54:31;;;;;;;7.10;3.65;;;;;;;;;;5034554;28;20108;-77
2021/08/18 10:56:58;;;;;;;8.13;3.45;;;;;;;;;;5034523;28;20098;-76
2021/08/18 10:59:36;;;;;;;5.68;3.35;;;;;;;;;;5034490;28;20536;-75
2021/08/18 11:02:02;;;;;;;8.07;4.03;;;;;;;;;;5034360;28;20030;-75
2021/08/18 11:04:44;;;;;;;8.43;3.63;;;;;;;;;;5034622;28;20040;-76
2021/08/18 11:07:11;;;;;;;6.57;3.90;;;;;;;;;;5016479;28;20029;-76
2021/08/18 11:09:49;;;;;;;11.50;3.97;;;;;;;;;;5034066;28;20029;-75
2021/08/18 11:12:34;;;;;;;5.07;3.60;;;;;;;;;;5034514;28;20040;-76
2021/08/18 11:15:00;;;;;;;6.90;3.42;;;;;;;;;;5034134;28;20489;-76
2021/08/18 11:17:26;;;;;;;5.72;3.30;;;;;;;;;;5034094;28;20025;-75
2021/08/18 11:19:54;;;;;;;9.45;3.80;;;;;;;;;;5034386;28;20028;-75
2021/08/18 11:22:20;;;;;;;6.43;3.80;;;;;;;;;;5033951;28;20025;-77
2021/08/18 11:24:46;;;;;;;7.93;3.70;;;;;;;;;;5033965;28;20026;-76
2021/08/18 11:27:17;;;;;;;6.50;3.95;;;;;;;;;;5034478;28;20030;-75
2021/08/18 11:29:43;;;;;;;8.35;3.90;;;;;;;;;;5015978;28;20430;-76
2021/08/18 11:32:09;;;;;;;9.77;3.70;;;;;;;;;;5033839;28;20081;-77
2021/08/18 11:34:37;;;;;;;5.90;3.70;;;;;;;;;;5033837;28;20444;-75
2021/08/18 11:37:03;;;;;;;6.13;3.80;;;;;;;;;;5015713;28;20032;-75
2021/08/18 11:39:36;;;;;;;5.43;3.53;;;;;;;;;;5034331;28;20452;-76
2021/08/18 11:42:13;;;;;;;6.88;3.97;;;;;;;;;;5033995;28;20464;-76
2021/08/18 11:44:39;;;;;;;6.25;3.33;;;;;;;;;;5034482;28;20013;-75
2021/08/18 11:47:07;;;;;;;7.38;3.78;;;;;;;;;;5033589;28;20061;-75
2021/08/18 11:49:33;;;;;;;7.00;3.50;;;;;;;;;;5015864;28;20096;-76
2021/08/18 11:51:59;;;;;;;7.38;3.97;;;;;;;;;;5033557;28;20033;-77
2021/08/18 11:54:26;;;;;;;6.65;3.95;;;;;;;;;;5033522;28;20029;-75
2021/08/18 11:57:01;;;;;;;4.60;3.35;;;;;;;;;;5033466;28;20040;-77
2021/08/18 11:59:28;;;;;;;8.38;3.75;;;;;;;;;;5033567;28;20029;-75
2021/08/18 12:01:57;;;;;;;7.57;3.85;;;;;;;;;;5033327;28;20033;-75
2021/08/18 12:04:23;;;;;;;7.17;3.63;;;;;;;;;;5033461;28;20382;-74
2021/08/18 12:07:05;;;;;;;5.50;3.28;;;;;;;;;;5015773;28;20017;-73
2021/08/18 12:09:31;;;;;;;6.63;3.75;;;;;;;;;;5033574;28;20466;-74
2021/08/18 12:12:07;;;;;;;7.47;4.03;;;;;;;;;;5015400;28;20397;-74
2021/08/18 12:14:46;;;;;;;8.68;5.18;;;;;;;;;;5033908;28;20029;-74
2021/08/18 12:17:13;;;;;;;8.52;5.43;;;;;;;;;;5033642;28;20018;-74
2021/08/18 12:19:40;;;;;;;7.28;3.60;;;;;;;;;;5015548;28;20584;-75
2021/08/18 12:22:17;;;;;;;8.07;3.75;;;;;;;;;;5033289;28;20065;-75
2021/08/18 12:24:53;;;;;;;8.32;3.80;;;;;;;;;;5033723;28;20029;-74
2021/08/18 12:27:20;;;;;;;5.63;3.40;;;;;;;;;;5033869;28;20092;-74
2021/08/18 12:29:46;;;;;;;6.07;3.05;;;;;;;;;;5033121;28;20393;-74
2021/08/18 12:32:14;;;;;;;8.27;4.07;;;;;;;;;;5033113;28;20025;-74
2021/08/18 12:34:47;;;;;;;5.57;3.40;;;;;;;;;;5033087;28;20088;-74
2021/08/18 12:37:16;;;;;;;5.60;3.13;;;;;;;;;;5033371;28;20057;-74
2021/08/18 12:39:46;;;;;;;5.70;3.22;;;;;;;;;;5033299;28;20033;-75
2021/08/18 12:42:29;;;;;;;5.45;2.95;;;;;;;;;;5033218;28;20025;-77
2021/08/18 12:44:59;;;;;;;7.55;2.97;;;;;;;;;;5033566;28;20087;-73
2021/08/18 12:47:25;;;;;;;;;;;;;;;;;;5033351;28;20490;-74
2021/08/18 12:49:51;;;;;;;6.80;3.42;;;;;;;;;;5032833;28;19905;-75
2021/08/18 12:52:17;;;;;;;4.57;2.90;;;;;;;;;;5032907;28;20037;-75
2021/08/18 12:54:44;;;;;;;5.72;3.08;;;;;;;;;;5033758;28;20080;-75
2021/08/18 12:57:10;;;;;;;7.93;2.95;;;;;;;;;;5032826;28;20025;-76
2021/08/18 12:59:37;;;;;;;6.38;3.47;;;;;;;;;;5032793;28;20053;-76
2021/08/18 13:02:03;;;;;;;3.60;2.67;;;;;;;;;;5033011;28;20026;-75
2021/08/18 13:04:29;;;;;;;4.28;2.85;;;;;;;;;;5032772;28;20022;-76
2021/08/18 13:06:55;;;;;;;5.15;2.60;;;;;;;;;;5032721;28;20096;-77
2021/08/18 13:09:22;;;;;;;6.97;3.00;;;;;;;;;;5032461;28;20021;-75
2021/08/18 13:11:49;;;;;;;4.82;2.80;;;;;;;;;;5033531;28;20078;-74
2021/08/18 13:14:16;;;;;;;5.55;3.05;;;;;;;;;;5036517;28;20079;-75
2021/08/18 13:16:42;;;;;;;6.30;3.17;;;;;;;;;;5036535;28;20497;-76
2021/08/18 13:19:08;;;;;;;8.00;3.15;;;;;;;;;;5036340;28;20022;-76
2021/08/18 13:21:34;;;;;;;4.00;2.40;;;;;;;;;;5036284;28;20071;-76
2021/08/18 13:24:00;;;;;;;4.97;2.45;;;;;;;;;;5036429;28;20127;-76
2021/08/18 13:26:26;;;;;;;5.80;2.95;;;;;;;;;;5036282;28;20477;-75
2021/08/18 13:28:53;;;;;;;6.03;2.60;;;;;;;;;;5036429;28;20496;-75
2021/08/18 13:31:19;;;;;;;5.78;2.83;;;;;;;;;;5036159;28;20022;-77
2021/08/18 13:33:46;;;;;;;5.43;2.50;;;;;;;;;;5018512;28;20026;-75
2021/08/18 13:36:12;;;;;;;4.60;2.78;;;;;;;;;;5036062;28;20022;-76
2021/08/18 13:38:38;;;;;;;3.58;2.65;;;;;;;;;;5036250;28;20489;-76
2021/08/18 13:41:04;;;;;;;4.80;2.50;;;;;;;;;;5035964;28;20490;-76
2021/08/18 13:43:30;;;;;;;3.58;2.33;;;;;;;;;;5035814;28;20045;-75
2021/08/18 13:45:56;;;;;;;6.43;2.97;;;;;;;;;;5036162;28;20021;-76
2021/08/18 13:48:22;;;;;;;4.60;2.55;;;;;;;;;;5036073;28;20381;-76
2021/08/18 13:50:48;;;;;;;5.60;3.08;;;;;;;;;;5036069;28;20381;-76
2021/08/18 13:53:14;;;;;;;3.55;2.42;;;;;;;;;;5035736;28;20055;-75
2021/08/18 13:55:41;;;;;;;4.65;2.40;;;;;;;;;;5036427;28;20025;-77
2021/08/18 13:58:07;;;;;;;3.95;2.28;;;;;;;;;;5036366;28;20025;-76
2021/08/18 14:00:33;;;;;;;4.03;2.55;;;;;;;;;;5035632;28;20584;-76
2021/08/18 14:02:59;;;;;;;6.05;2.78;;;;;;;;;;5035491;28;20108;-76
2021/08/18 14:05:26;;;;;;;4.80;2.65;;;;;;;;;;5035823;28;20025;-76
2021/08/18 14:07:52;;;;;;;5.00;2.45;;;;;;;;;;5035487;28;20020;-75
2021/08/18 14:10:18;;;;;;;5.30;2.42;;;;;;;;;;5035242;28;20049;-76
2021/08/18 14:12:45;;;;;;;4.32;2.30;;;;;;;;;;5035411;28;20029;-76
2021/08/18 14:15:11;;;;;;;9.52;3.15;;;;;;;;;;5035870;28;20025;-76
2021/08/18 14:17:37;;;;;;;3.50;2.40;;;;;;;;;;5035864;28;20026;-76
2021/08/18 14:20:04;;;;;;;4.65;2.60;;;;;;;;;;5035153;28;20029;-76
2021/08/18 14:22:30;;;;;;;5.22;2.50;;;;;;;;;;5035361;28;20492;-76
2021/08/18 14:24:56;;;;;;;5.40;2.60;;;;;;;;;;5035423;28;20461;-75
2021/08/18 14:27:22;;;;;;;5.78;2.97;;;;;;;;;;5035133;28;20025;-76
2021/08/18 14:29:48;;;;;;;3.90;2.58;;;;;;;;;;5035378;28;20026;-76
2021/08/18 14:32:14;;;;;;;4.70;2.60;;;;;;;;;;5035079;28;20028;-76
2021/08/18 14:34:40;;;;;;;6.00;2.85;;;;;;;;;;5034973;28;20036;-76
2021/08/18 14:37:06;;;;;;;5.43;3.35;;;;;;;;;;5035398;28;20025;-77
2021/08/18 14:39:32;;;;;;;5.78;3.38;;;;;;;;;;5034912;28;20033;-76
2021/08/18 14:41:58;;;;;;;6.97;3.10;;;;;;;;;;5034807;28;20100;-76
2021/08/18 14:44:24;;;;;;;5.70;3.25;;;;;;;;;;5034843;28;20121;-76